x

Freeport, Tx - 60 Nm South Of Freeport, Tx (42019) Wave Buoy

4:50am - Fri 28th Nov 2014 All times are CST. -6 hours from GMT.

  • Sig Wave height 2.3ft
  • Swell Direction
  • Peak Period 6s
  • Average Period 4s
  • Wind
    9mph, 13mph gusts
  • Sea Temp 73°f
  • Air Temp 68°f
  • Sea Pressure 1027.2mb
  • Freeport, Tx - 60 Nm South Of Freeport, Tx
  • Freeport, Tx - 60 Nm South Of Freeport, Tx

More Historic Weather Station data

Upgrade to MSW Pro to gain access to the past 30 days of data for over 8000 Wavebouys and Weather Stations around the globe.

Join Pro

Comparision Forecast

View Surf forecast
   
Fri 11/28 4:50am 2.5ft 6s 4s 9 13 mph 1027.2mb 73f 68f
3:50am 2.5ft 5s 4s 9 13 mph 1027.6mb 73f 68f
2:50am 2.5ft 5s 4s 9 13 mph 1028mb 73f 68f
1:50am 3ft 6s 4s 11 13 mph 1028.3mb 73f 67f
12:50am 2.5ft 6s 4s 11 16 mph 1028.7mb 73f 67f
Thu 11/27 11:50pm 3ft 6s 4s 11 16 mph 1029.3mb 73f 67f
10:50pm 3ft 6s 4s 13 16 mph 1029.8mb 72f 67f
9:50pm 3ft 6s 4s 13 16 mph 1029.9mb 72f 66f
8:50pm 3.5ft 6s 4s 13 18 mph 1030.1mb 72f 66f
7:50pm 3.5ft 6s 4s 16 18 mph 1030.2mb 72f 66f
6:50pm 3.5ft 6s 4s 16 18 mph 1030.1mb 72f 66f
5:50pm 3.5ft 6s 4s 13 18 mph 1029.7mb 72f 65f
4:50pm 3.5ft 6s 4s 13 18 mph 1029.6mb 72f 65f
3:50pm 4ft 6s 4s 16 20 mph 1029.3mb 72f 65f
2:50pm 4ft 6s 4s 16 20 mph 1029.3mb 72f 65f
1:50pm 3.5ft 5s 4s 16 20 mph 1029.5mb 72f 65f
12:50pm 3.5ft 5s 4s 18 20 mph 1029.9mb 72f 66f
11:50am 3ft 4s 4s 20 25 mph 1030.6mb 72f 66f
10:50am 2.5ft 4s 4s 18 22 mph 1031mb 72f 67f
9:50am 2ft 3s 4s 16 20 mph 1031.3mb 72f 67f
8:50am 2.5ft 3s 4s 13 18 mph 1030.9mb 72f 66f
7:50am 2ft 5s 4s 16 20 mph 1030.3mb 73f 65f
6:50am 2ft 5s 4s 16 20 mph 1029.4mb 72f 66f
5:50am 2ft 5s 4s 9 11 mph 1028.6mb 72f 70f
4:50am 2ft 5s 4s 7 9 mph 1027.9mb 72f 70f
3:50am 2.5ft 5s 4s 7 11 mph 1027.8mb 72f 70f
2:50am 2.5ft 5s 4s 7 9 mph 1027.6mb 72f 70f
1:50am 2.5ft 6s 5s 9 11 mph 1027.4mb 72f 70f
12:50am 3.5ft 6s 5s 9 11 mph 1027mb 72f 70f
Wed 11/26 11:50pm  -   -   -  11
mph
1026.9mb 72f 70f
10:50pm 3.5ft 6s 5s 11 13 mph 1026.9mb 72f 70f
9:50pm 3.5ft 6s 5s 11 13 mph 1026.6mb 72f 70f
8:50pm 3.5ft 6s 5s 13 16 mph 1026.2mb 72f 70f
7:50pm 3.5ft 6s 4s 16 20 mph 1025.6mb 72f 69f
6:50pm 4ft 5s 5s 16 20 mph 1025.1mb 72f 69f
5:50pm 4.5ft 6s 5s 16 20 mph 1024.6mb 73f 69f
4:50pm 4.5ft 5s 5s 18 22 mph 1024.1mb 73f 69f
3:50pm 4.5ft 5s 4s 18 22 mph 1023.7mb 73f 69f
2:50pm 3.5ft 4s 4s 20 25 mph 1023.5mb 73f 69f
1:50pm 3.5ft 4s 4s 18 25 mph 1023.8mb 73f 69f
12:50pm 3ft 7s 4s 18 22 mph 1024.2mb 73f 68f
11:50am 2.5ft 7s 4s 16 22 mph 1025.2mb 73f 68f
10:50am 3ft 6s 5s 13 18 mph 1025.8mb 73f 68f
9:50am 2.5ft 7s 5s 11 16 mph 1026.2mb 73f 67f
8:50am 2.5ft 7s 5s 11 16 mph 1026mb 73f 67f
7:50am 3ft 7s 5s 11 13 mph 1025.3mb 73f 67f
6:50am 3ft 7s 5s 11 13 mph 1025.1mb 73f 66f
5:50am 3.5ft 7s 6s 11 16 mph 1024.7mb 73f 66f
4:50am 3.5ft 8s 6s 9 13 mph 1024.3mb 73f 65f
3:50am 3.5ft 8s 6s 9 13 mph 1024.6mb 73f 65f
2:50am 3.5ft 8s 6s 9 11 mph 1024.9mb 73f 65f
1:50am 3.5ft 8s 6s 7 11 mph 1025mb 73f 64f
12:50am 4ft 8s 6s 4 7 mph 1025.4mb 73f 64f
Tue 11/25 11:50pm 4.5ft 8s 6s  -  2 mph 1025.5mb 73f 63f
10:50pm 5ft 8s 6s  -  4 mph 1026mb 73f 63f
9:50pm 5ft 8s 6s 2
mph
1025.8mb 73f 63f
8:50pm 4.5ft 8s 6s  -  4 mph 1025.4mb 73f 62f
7:50pm 5ft 7s 6s 4 7 mph 1025.8mb 73f 62f
6:50pm 5ft 8s 5s 7 11 mph 1025.9mb 73f 62f
5:50pm 5.5ft 8s 6s 9 13 mph 1025.1mb 73f 63f
4:50pm 5ft 7s 5s 13 18 mph 1025.1mb 73f 62f
3:50pm 6ft 8s 5s 16 20 mph 1024.6mb 73f 62f
2:50pm 6ft 7s 5s 18 22 mph 1024.4mb 73f 62f
1:50pm 6ft 7s 5s 18 20 mph 1024.4mb 73f 62f
12:50pm 6ft 6s 5s 18 25 mph 1024.6mb 73f 62f
11:50am 6ft 7s 5s 20 25 mph 1025.1mb 73f 62f
10:50am 6ft 7s 5s 20 27 mph 1025.1mb 73f 63f
9:50am 6ft 7s 5s 22 29 mph 1024.5mb 73f 64f
8:50am 6ft 7s 5s 22 27 mph 1023.7mb 73f 63f
7:50am 7ft 6s 5s 22 29 mph 1023mb 73f 62f
6:50am 6ft 6s 5s 25 31 mph 1022mb 73f 63f
5:50am 6ft 6s 5s 25 29 mph 1020.9mb 73f 63f
4:50am 6ft 6s 5s 25 34 mph 1020.6mb 73f 63f
3:50am 6ft 6s 5s 22 27 mph 1020.5mb 73f 63f
2:50am 5.5ft 6s 5s 22 27 mph 1020.1mb 73f 64f
1:50am 6ft 6s 5s 22 27 mph 1019.4mb 73f 64f
12:50am 5.5ft 6s 5s 22 29 mph 1019.1mb 73f 64f
Mon 11/24 11:50pm 5ft 6s 5s 22 27 mph 1019.7mb 73f 64f
10:50pm 5ft 6s 5s 22 27 mph 1019.5mb 73f 64f
9:50pm 5ft 6s 5s 22 27 mph 1019.2mb 73f 64f
8:50pm 5ft 6s 5s 22 27 mph 1018.4mb 73f 65f
7:50pm 4.5ft 6s 5s 22 29 mph 1017.7mb 73f 65f
6:50pm 5ft 6s 5s 18 25 mph 1017.1mb 73f 64f
5:50pm 5ft 6s 5s 20 25 mph 1016.4mb 73f 64f
4:50pm 5.5ft 6s 5s 20 25 mph 1015.8mb 73f 63f
3:50pm 5.5ft 6s 5s 20 25 mph 1015.6mb 73f 62f
2:50pm 6ft 6s 5s 22 27 mph 1015mb 73f 62f
1:50pm 6ft 6s 5s 25 29 mph 1015.1mb 73f 61f
12:50pm 5ft 6s 5s 25 29 mph 1015.1mb 73f 61f
11:50am 5.5ft 6s 5s 25 29 mph 1016.3mb 73f 60f